sensor_id;sensor_type;location;lat;lon;timestamp;P1;durP1;ratioP1;P2;durP2;ratioP2
29550;SDS011;16488;52.396;10.696;2023-09-08T00:02:18;8.88;;;5.22;;
29550;SDS011;16488;52.396;10.696;2023-09-08T00:04:43;9.77;;;5.77;;
29550;SDS011;16488;52.396;10.696;2023-09-08T00:07:09;9.95;;;4.68;;
29550;SDS011;16488;52.396;10.696;2023-09-08T00:09:35;10.07;;;5.57;;
29550;SDS011;16488;52.396;10.696;2023-09-08T00:12:00;13.07;;;5.45;;
29550;SDS011;16488;52.396;10.696;2023-09-08T00:14:26;9.00;;;6.22;;
29550;SDS011;16488;52.396;10.696;2023-09-08T00:16:52;12.68;;;5.40;;
29550;SDS011;16488;52.396;10.696;2023-09-08T00:19:20;7.07;;;5.07;;
29550;SDS011;16488;52.396;10.696;2023-09-08T00:21:46;9.00;;;5.35;;
29550;SDS011;16488;52.396;10.696;2023-09-08T00:24:12;13.52;;;5.70;;
29550;SDS011;16488;52.396;10.696;2023-09-08T00:26:37;14.30;;;6.27;;
29550;SDS011;16488;52.396;10.696;2023-09-08T00:29:03;9.10;;;4.97;;
29550;SDS011;16488;52.396;10.696;2023-09-08T00:31:28;9.38;;;5.40;;
29550;SDS011;16488;52.396;10.696;2023-09-08T00:33:54;14.03;;;5.37;;
29550;SDS011;16488;52.396;10.696;2023-09-08T00:36:20;7.75;;;5.30;;
29550;SDS011;16488;52.396;10.696;2023-09-08T00:38:45;10.15;;;5.70;;
29550;SDS011;16488;52.396;10.696;2023-09-08T00:41:11;9.60;;;5.40;;
29550;SDS011;16488;52.396;10.696;2023-09-08T00:43:36;8.45;;;5.20;;
29550;SDS011;16488;52.396;10.696;2023-09-08T00:46:02;9.13;;;5.80;;
29550;SDS011;16488;52.396;10.696;2023-09-08T00:48:28;9.52;;;5.80;;
29550;SDS011;16488;52.396;10.696;2023-09-08T00:53:20;9.15;;;5.25;;
29550;SDS011;16488;52.396;10.696;2023-09-08T00:55:46;11.05;;;4.95;;
29550;SDS011;16488;52.396;10.696;2023-09-08T00:58:13;14.90;;;5.57;;
29550;SDS011;16488;52.396;10.696;2023-09-08T01:00:39;10.07;;;7.60;;
29550;SDS011;16488;52.396;10.696;2023-09-08T01:03:04;9.20;;;5.70;;
29550;SDS011;16488;52.396;10.696;2023-09-08T01:05:30;9.40;;;5.77;;
29550;SDS011;16488;52.396;10.696;2023-09-08T01:07:56;9.68;;;5.32;;
29550;SDS011;16488;52.396;10.696;2023-09-08T01:10:24;10.60;;;5.55;;
29550;SDS011;16488;52.396;10.696;2023-09-08T01:12:49;7.65;;;5.13;;
29550;SDS011;16488;52.396;10.696;2023-09-08T01:15:15;8.07;;;5.50;;
29550;SDS011;16488;52.396;10.696;2023-09-08T01:17:41;10.50;;;5.90;;
29550;SDS011;16488;52.396;10.696;2023-09-08T01:20:10;8.27;;;5.53;;
29550;SDS011;16488;52.396;10.696;2023-09-08T01:25:46;10.95;;;6.00;;
29550;SDS011;16488;52.396;10.696;2023-09-08T01:28:14;8.15;;;5.50;;
29550;SDS011;16488;52.396;10.696;2023-09-08T01:33:06;9.50;;;6.03;;
29550;SDS011;16488;52.396;10.696;2023-09-08T01:35:32;13.65;;;5.97;;
29550;SDS011;16488;52.396;10.696;2023-09-08T01:37:57;8.50;;;6.43;;
29550;SDS011;16488;52.396;10.696;2023-09-08T01:40:23;11.10;;;6.47;;
29550;SDS011;16488;52.396;10.696;2023-09-08T01:42:50;9.07;;;5.80;;
29550;SDS011;16488;52.396;10.696;2023-09-08T01:45:16;10.02;;;6.28;;
29550;SDS011;16488;52.396;10.696;2023-09-08T01:47:42;9.82;;;6.00;;
29550;SDS011;16488;52.396;10.696;2023-09-08T01:50:07;10.25;;;5.68;;
29550;SDS011;16488;52.396;10.696;2023-09-08T01:52:33;9.65;;;5.93;;
29550;SDS011;16488;52.396;10.696;2023-09-08T01:54:59;11.32;;;6.05;;
29550;SDS011;16488;52.396;10.696;2023-09-08T01:57:25;11.43;;;5.77;;
29550;SDS011;16488;52.396;10.696;2023-09-08T01:59:50;9.17;;;5.80;;
29550;SDS011;16488;52.396;10.696;2023-09-08T02:02:16;13.57;;;6.90;;
29550;SDS011;16488;52.396;10.696;2023-09-08T02:04:41;10.13;;;6.00;;
29550;SDS011;16488;52.396;10.696;2023-09-08T02:07:07;12.80;;;6.47;;
29550;SDS011;16488;52.396;10.696;2023-09-08T02:09:33;8.82;;;6.03;;
29550;SDS011;16488;52.396;10.696;2023-09-08T02:12:00;8.13;;;5.85;;
29550;SDS011;16488;52.396;10.696;2023-09-08T02:16:53;9.40;;;6.05;;
29550;SDS011;16488;52.396;10.696;2023-09-08T02:19:19;11.98;;;6.20;;
29550;SDS011;16488;52.396;10.696;2023-09-08T02:21:45;10.48;;;5.88;;
29550;SDS011;16488;52.396;10.696;2023-09-08T02:24:10;12.18;;;5.95;;
29550;SDS011;16488;52.396;10.696;2023-09-08T02:26:37;15.70;;;6.40;;
29550;SDS011;16488;52.396;10.696;2023-09-08T02:29:06;9.32;;;5.72;;
29550;SDS011;16488;52.396;10.696;2023-09-08T02:31:32;10.50;;;5.70;;
29550;SDS011;16488;52.396;10.696;2023-09-08T02:33:58;9.82;;;6.32;;
29550;SDS011;16488;52.396;10.696;2023-09-08T02:36:23;9.80;;;6.13;;
29550;SDS011;16488;52.396;10.696;2023-09-08T02:38:52;11.68;;;6.30;;
29550;SDS011;16488;52.396;10.696;2023-09-08T02:41:19;15.13;;;7.90;;
29550;SDS011;16488;52.396;10.696;2023-09-08T02:43:45;13.63;;;6.63;;
29550;SDS011;16488;52.396;10.696;2023-09-08T02:46:10;11.95;;;6.03;;
29550;SDS011;16488;52.396;10.696;2023-09-08T02:48:36;11.87;;;5.80;;
29550;SDS011;16488;52.396;10.696;2023-09-08T02:51:02;12.30;;;7.28;;
29550;SDS011;16488;52.396;10.696;2023-09-08T02:53:28;11.55;;;6.93;;
29550;SDS011;16488;52.396;10.696;2023-09-08T02:55:57;11.43;;;6.35;;
29550;SDS011;16488;52.396;10.696;2023-09-08T02:58:23;12.27;;;5.53;;
29550;SDS011;16488;52.396;10.696;2023-09-08T03:00:49;8.68;;;5.53;;
29550;SDS011;16488;52.396;10.696;2023-09-08T03:03:17;10.43;;;6.13;;
29550;SDS011;16488;52.396;10.696;2023-09-08T03:05:45;14.25;;;6.57;;
29550;SDS011;16488;52.396;10.696;2023-09-08T03:08:11;21.75;;;6.60;;
29550;SDS011;16488;52.396;10.696;2023-09-08T03:10:37;11.05;;;5.90;;
29550;SDS011;16488;52.396;10.696;2023-09-08T03:13:03;11.48;;;6.85;;
29550;SDS011;16488;52.396;10.696;2023-09-08T03:15:31;12.02;;;5.78;;
29550;SDS011;16488;52.396;10.696;2023-09-08T03:17:59;11.57;;;5.90;;
29550;SDS011;16488;52.396;10.696;2023-09-08T03:20:25;10.13;;;6.20;;
29550;SDS011;16488;52.396;10.696;2023-09-08T03:22:54;10.40;;;5.85;;
29550;SDS011;16488;52.396;10.696;2023-09-08T03:25:20;22.33;;;10.43;;
29550;SDS011;16488;52.396;10.696;2023-09-08T03:27:46;11.52;;;7.38;;
29550;SDS011;16488;52.396;10.696;2023-09-08T03:30:12;13.13;;;6.68;;
29550;SDS011;16488;52.396;10.696;2023-09-08T03:32:38;10.35;;;6.45;;
29550;SDS011;16488;52.396;10.696;2023-09-08T03:35:03;14.50;;;6.65;;
29550;SDS011;16488;52.396;10.696;2023-09-08T03:37:32;11.50;;;6.47;;
29550;SDS011;16488;52.396;10.696;2023-09-08T03:39:59;15.00;;;6.80;;
29550;SDS011;16488;52.396;10.696;2023-09-08T03:42:25;9.25;;;6.32;;
29550;SDS011;16488;52.396;10.696;2023-09-08T03:44:50;11.90;;;7.43;;
29550;SDS011;16488;52.396;10.696;2023-09-08T03:47:16;10.37;;;5.97;;
29550;SDS011;16488;52.396;10.696;2023-09-08T03:49:41;11.68;;;6.40;;
29550;SDS011;16488;52.396;10.696;2023-09-08T03:52:07;15.23;;;7.22;;
29550;SDS011;16488;52.396;10.696;2023-09-08T03:54:33;15.00;;;6.97;;
29550;SDS011;16488;52.396;10.696;2023-09-08T03:56:58;9.23;;;6.20;;
29550;SDS011;16488;52.396;10.696;2023-09-08T03:59:24;13.35;;;7.43;;
29550;SDS011;16488;52.396;10.696;2023-09-08T04:01:49;11.13;;;6.70;;
29550;SDS011;16488;52.396;10.696;2023-09-08T04:04:15;9.73;;;6.80;;
29550;SDS011;16488;52.396;10.696;2023-09-08T04:06:41;13.25;;;7.32;;
29550;SDS011;16488;52.396;10.696;2023-09-08T04:09:06;12.93;;;6.47;;
29550;SDS011;16488;52.396;10.696;2023-09-08T04:11:32;12.27;;;6.80;;
29550;SDS011;16488;52.396;10.696;2023-09-08T04:13:58;10.67;;;7.00;;
29550;SDS011;16488;52.396;10.696;2023-09-08T04:16:23;10.30;;;7.33;;
29550;SDS011;16488;52.396;10.696;2023-09-08T04:18:50;11.98;;;7.35;;
29550;SDS011;16488;52.396;10.696;2023-09-08T04:21:16;12.27;;;6.30;;
29550;SDS011;16488;52.396;10.696;2023-09-08T04:23:41;11.75;;;7.30;;
29550;SDS011;16488;52.396;10.696;2023-09-08T04:26:07;10.60;;;6.63;;
29550;SDS011;16488;52.396;10.696;2023-09-08T04:28:32;11.30;;;7.27;;
29550;SDS011;16488;52.396;10.696;2023-09-08T04:30:58;17.60;;;6.80;;
29550;SDS011;16488;52.396;10.696;2023-09-08T04:33:24;12.18;;;6.68;;
29550;SDS011;16488;52.396;10.696;2023-09-08T04:35:49;12.30;;;7.33;;
29550;SDS011;16488;52.396;10.696;2023-09-08T04:38:15;16.80;;;6.97;;
29550;SDS011;16488;52.396;10.696;2023-09-08T04:40:40;10.13;;;6.83;;
29550;SDS011;16488;52.396;10.696;2023-09-08T04:43:07;11.05;;;7.00;;
29550;SDS011;16488;52.396;10.696;2023-09-08T04:45:32;10.32;;;6.85;;
29550;SDS011;16488;52.396;10.696;2023-09-08T04:47:58;10.90;;;7.17;;
29550;SDS011;16488;52.396;10.696;2023-09-08T04:50:23;16.50;;;7.70;;
29550;SDS011;16488;52.396;10.696;2023-09-08T04:52:49;12.73;;;7.63;;
29550;SDS011;16488;52.396;10.696;2023-09-08T04:55:15;12.33;;;6.80;;
29550;SDS011;16488;52.396;10.696;2023-09-08T04:57:40;10.65;;;7.65;;
29550;SDS011;16488;52.396;10.696;2023-09-08T05:00:06;11.60;;;6.63;;
29550;SDS011;16488;52.396;10.696;2023-09-08T05:02:32;10.73;;;7.25;;
29550;SDS011;16488;52.396;10.696;2023-09-08T05:04:57;13.73;;;7.10;;
29550;SDS011;16488;52.396;10.696;2023-09-08T05:07:25;11.02;;;6.65;;
29550;SDS011;16488;52.396;10.696;2023-09-08T05:09:50;9.38;;;6.53;;
29550;SDS011;16488;52.396;10.696;2023-09-08T05:12:16;14.37;;;7.53;;
29550;SDS011;16488;52.396;10.696;2023-09-08T05:14:41;13.23;;;7.47;;
29550;SDS011;16488;52.396;10.696;2023-09-08T05:17:07;10.52;;;7.05;;
29550;SDS011;16488;52.396;10.696;2023-09-08T05:19:33;14.80;;;7.20;;
29550;SDS011;16488;52.396;10.696;2023-09-08T05:21:58;12.20;;;7.57;;
29550;SDS011;16488;52.396;10.696;2023-09-08T05:24:24;12.25;;;6.93;;
29550;SDS011;16488;52.396;10.696;2023-09-08T05:26:51;12.25;;;7.50;;
29550;SDS011;16488;52.396;10.696;2023-09-08T05:29:17;14.20;;;6.60;;
29550;SDS011;16488;52.396;10.696;2023-09-08T05:31:43;12.93;;;7.55;;
29550;SDS011;16488;52.396;10.696;2023-09-08T05:34:08;14.18;;;6.53;;
29550;SDS011;16488;52.396;10.696;2023-09-08T05:36:34;13.30;;;7.55;;
29550;SDS011;16488;52.396;10.696;2023-09-08T05:39:05;10.73;;;7.72;;
29550;SDS011;16488;52.396;10.696;2023-09-08T05:41:30;9.63;;;6.70;;
29550;SDS011;16488;52.396;10.696;2023-09-08T05:43:57;10.40;;;7.07;;
29550;SDS011;16488;52.396;10.696;2023-09-08T05:46:23;11.80;;;7.47;;
29550;SDS011;16488;52.396;10.696;2023-09-08T05:48:49;12.32;;;7.57;;
29550;SDS011;16488;52.396;10.696;2023-09-08T05:51:14;14.38;;;7.65;;
29550;SDS011;16488;52.396;10.696;2023-09-08T05:53:40;10.77;;;6.88;;
29550;SDS011;16488;52.396;10.696;2023-09-08T05:56:06;13.23;;;8.07;;
29550;SDS011;16488;52.396;10.696;2023-09-08T05:58:32;11.20;;;7.13;;
29550;SDS011;16488;52.396;10.696;2023-09-08T06:00:59;14.65;;;6.88;;
29550;SDS011;16488;52.396;10.696;2023-09-08T06:03:28;13.25;;;8.15;;
29550;SDS011;16488;52.396;10.696;2023-09-08T06:05:54;12.38;;;7.03;;
29550;SDS011;16488;52.396;10.696;2023-09-08T06:08:21;11.95;;;7.40;;
29550;SDS011;16488;52.396;10.696;2023-09-08T06:10:47;10.32;;;6.65;;
29550;SDS011;16488;52.396;10.696;2023-09-08T06:13:12;11.95;;;7.53;;
29550;SDS011;16488;52.396;10.696;2023-09-08T06:15:38;11.30;;;6.93;;
29550;SDS011;16488;52.396;10.696;2023-09-08T06:18:04;10.93;;;7.20;;
29550;SDS011;16488;52.396;10.696;2023-09-08T06:20:30;13.52;;;7.03;;
29550;SDS011;16488;52.396;10.696;2023-09-08T06:22:55;12.38;;;7.40;;
29550;SDS011;16488;52.396;10.696;2023-09-08T06:25:21;11.60;;;6.77;;
29550;SDS011;16488;52.396;10.696;2023-09-08T06:27:47;16.20;;;7.22;;
29550;SDS011;16488;52.396;10.696;2023-09-08T06:30:12;12.10;;;7.13;;
29550;SDS011;16488;52.396;10.696;2023-09-08T06:32:42;10.52;;;7.10;;
29550;SDS011;16488;52.396;10.696;2023-09-08T06:35:08;10.73;;;6.97;;
29550;SDS011;16488;52.396;10.696;2023-09-08T06:37:37;11.50;;;7.28;;
29550;SDS011;16488;52.396;10.696;2023-09-08T06:40:04;17.38;;;7.50;;
29550;SDS011;16488;52.396;10.696;2023-09-08T06:42:30;17.42;;;7.78;;
29550;SDS011;16488;52.396;10.696;2023-09-08T06:44:56;15.75;;;7.15;;
29550;SDS011;16488;52.396;10.696;2023-09-08T06:47:22;15.88;;;8.50;;
29550;SDS011;16488;52.396;10.696;2023-09-08T06:49:47;12.47;;;7.17;;
29550;SDS011;16488;52.396;10.696;2023-09-08T06:52:13;14.55;;;6.40;;
29550;SDS011;16488;52.396;10.696;2023-09-08T06:54:38;12.73;;;8.02;;
29550;SDS011;16488;52.396;10.696;2023-09-08T06:57:04;11.85;;;6.28;;
29550;SDS011;16488;52.396;10.696;2023-09-08T06:59:29;10.95;;;6.50;;
29550;SDS011;16488;52.396;10.696;2023-09-08T07:01:55;8.75;;;5.97;;
29550;SDS011;16488;52.396;10.696;2023-09-08T07:04:21;9.60;;;6.07;;
29550;SDS011;16488;52.396;10.696;2023-09-08T07:06:46;11.38;;;5.75;;
29550;SDS011;16488;52.396;10.696;2023-09-08T07:09:12;9.20;;;5.83;;
29550;SDS011;16488;52.396;10.696;2023-09-08T07:11:38;23.08;;;7.55;;
29550;SDS011;16488;52.396;10.696;2023-09-08T07:14:04;9.77;;;6.30;;
29550;SDS011;16488;52.396;10.696;2023-09-08T07:16:29;9.10;;;5.85;;
29550;SDS011;16488;52.396;10.696;2023-09-08T07:18:55;9.75;;;6.35;;
29550;SDS011;16488;52.396;10.696;2023-09-08T07:21:20;10.02;;;6.15;;
29550;SDS011;16488;52.396;10.696;2023-09-08T07:23:46;16.30;;;7.60;;
29550;SDS011;16488;52.396;10.696;2023-09-08T07:26:12;28.13;;;7.55;;
29550;SDS011;16488;52.396;10.696;2023-09-08T07:28:37;18.83;;;6.40;;
29550;SDS011;16488;52.396;10.696;2023-09-08T07:31:03;9.97;;;6.43;;
29550;SDS011;16488;52.396;10.696;2023-09-08T07:33:30;10.45;;;6.78;;
29550;SDS011;16488;52.396;10.696;2023-09-08T07:35:55;9.10;;;5.90;;
29550;SDS011;16488;52.396;10.696;2023-09-08T07:38:21;15.00;;;6.00;;
29550;SDS011;16488;52.396;10.696;2023-09-08T07:40:47;17.15;;;6.53;;
29550;SDS011;16488;52.396;10.696;2023-09-08T07:43:13;10.20;;;5.73;;
29550;SDS011;16488;52.396;10.696;2023-09-08T07:45:38;15.20;;;6.30;;
29550;SDS011;16488;52.396;10.696;2023-09-08T07:48:05;12.77;;;6.07;;
29550;SDS011;16488;52.396;10.696;2023-09-08T07:52:57;10.20;;;5.50;;
29550;SDS011;16488;52.396;10.696;2023-09-08T07:55:23;9.27;;;5.30;;
29550;SDS011;16488;52.396;10.696;2023-09-08T07:57:52;8.52;;;5.10;;
29550;SDS011;16488;52.396;10.696;2023-09-08T08:00:18;10.02;;;5.10;;
29550;SDS011;16488;52.396;10.696;2023-09-08T08:05:11;12.13;;;5.97;;
29550;SDS011;16488;52.396;10.696;2023-09-08T08:07:37;15.07;;;5.63;;
29550;SDS011;16488;52.396;10.696;2023-09-08T08:10:04;11.43;;;5.05;;
29550;SDS011;16488;52.396;10.696;2023-09-08T08:12:34;14.20;;;6.30;;
29550;SDS011;16488;52.396;10.696;2023-09-08T08:14:59;11.50;;;5.95;;
29550;SDS011;16488;52.396;10.696;2023-09-08T08:17:25;16.50;;;5.50;;
29550;SDS011;16488;52.396;10.696;2023-09-08T08:19:52;15.80;;;5.40;;
29550;SDS011;16488;52.396;10.696;2023-09-08T08:22:18;32.95;;;9.23;;
29550;SDS011;16488;52.396;10.696;2023-09-08T08:24:44;64.65;;;13.02;;
29550;SDS011;16488;52.396;10.696;2023-09-08T08:27:10;22.98;;;7.40;;
29550;SDS011;16488;52.396;10.696;2023-09-08T08:29:35;17.42;;;6.93;;
29550;SDS011;16488;52.396;10.696;2023-09-08T08:32:01;22.25;;;5.68;;
29550;SDS011;16488;52.396;10.696;2023-09-08T08:34:27;8.93;;;5.00;;
29550;SDS011;16488;52.396;10.696;2023-09-08T08:36:53;12.60;;;5.65;;
29550;SDS011;16488;52.396;10.696;2023-09-08T08:39:18;15.73;;;5.03;;
29550;SDS011;16488;52.396;10.696;2023-09-08T08:41:44;11.48;;;5.75;;
29550;SDS011;16488;52.396;10.696;2023-09-08T08:44:09;18.17;;;5.20;;
29550;SDS011;16488;52.396;10.696;2023-09-08T08:46:36;10.13;;;4.43;;
29550;SDS011;16488;52.396;10.696;2023-09-08T08:49:02;7.93;;;4.53;;
29550;SDS011;16488;52.396;10.696;2023-09-08T08:51:30;8.98;;;5.50;;
29550;SDS011;16488;52.396;10.696;2023-09-08T08:53:56;6.80;;;5.07;;
29550;SDS011;16488;52.396;10.696;2023-09-08T08:56:22;6.82;;;4.55;;
29550;SDS011;16488;52.396;10.696;2023-09-08T08:58:48;7.22;;;4.28;;
29550;SDS011;16488;52.396;10.696;2023-09-08T09:01:17;11.82;;;5.22;;
29550;SDS011;16488;52.396;10.696;2023-09-08T09:03:45;7.15;;;4.20;;
29550;SDS011;16488;52.396;10.696;2023-09-08T09:06:13;9.07;;;4.03;;
29550;SDS011;16488;52.396;10.696;2023-09-08T09:08:40;8.10;;;4.55;;
29550;SDS011;16488;52.396;10.696;2023-09-08T09:11:08;7.63;;;3.95;;
29550;SDS011;16488;52.396;10.696;2023-09-08T09:13:34;6.80;;;4.60;;
29550;SDS011;16488;52.396;10.696;2023-09-08T09:15:59;7.75;;;4.18;;
29550;SDS011;16488;52.396;10.696;2023-09-08T09:18:28;13.07;;;4.38;;
29550;SDS011;16488;52.396;10.696;2023-09-08T09:20:55;7.10;;;4.10;;
29550;SDS011;16488;52.396;10.696;2023-09-08T09:23:26;6.03;;;3.60;;
29550;SDS011;16488;52.396;10.696;2023-09-08T09:25:59;7.50;;;4.00;;
29550;SDS011;16488;52.396;10.696;2023-09-08T09:28:26;7.65;;;4.13;;
29550;SDS011;16488;52.396;10.696;2023-09-08T09:30:54;7.18;;;3.70;;
29550;SDS011;16488;52.396;10.696;2023-09-08T09:33:20;7.38;;;4.25;;
29550;SDS011;16488;52.396;10.696;2023-09-08T09:38:13;8.32;;;4.63;;
29550;SDS011;16488;52.396;10.696;2023-09-08T09:43:04;6.30;;;4.07;;
29550;SDS011;16488;52.396;10.696;2023-09-08T09:45:32;5.30;;;3.45;;
29550;SDS011;16488;52.396;10.696;2023-09-08T09:47:59;7.60;;;3.90;;
29550;SDS011;16488;52.396;10.696;2023-09-08T09:50:31;9.88;;;3.60;;
29550;SDS011;16488;52.396;10.696;2023-09-08T09:52:59;11.20;;;4.15;;
29550;SDS011;16488;52.396;10.696;2023-09-08T09:55:26;8.23;;;4.18;;
29550;SDS011;16488;52.396;10.696;2023-09-08T09:57:55;5.38;;;3.83;;
29550;SDS011;16488;52.396;10.696;2023-09-08T10:00:28;6.40;;;4.18;;
29550;SDS011;16488;52.396;10.696;2023-09-08T10:02:55;4.97;;;3.58;;
29550;SDS011;16488;52.396;10.696;2023-09-08T10:05:21;7.25;;;4.05;;
29550;SDS011;16488;52.396;10.696;2023-09-08T10:07:48;7.93;;;3.85;;
29550;SDS011;16488;52.396;10.696;2023-09-08T10:10:15;8.35;;;4.30;;
29550;SDS011;16488;52.396;10.696;2023-09-08T10:12:45;6.82;;;4.00;;
29550;SDS011;16488;52.396;10.696;2023-09-08T10:15:18;9.88;;;4.00;;
29550;SDS011;16488;52.396;10.696;2023-09-08T10:17:46;14.10;;;4.28;;
29550;SDS011;16488;52.396;10.696;2023-09-08T10:20:17;9.90;;;3.97;;
29550;SDS011;16488;52.396;10.696;2023-09-08T10:22:46;11.45;;;4.18;;
29550;SDS011;16488;52.396;10.696;2023-09-08T10:25:15;6.30;;;3.63;;
29550;SDS011;16488;52.396;10.696;2023-09-08T10:27:42;7.90;;;3.67;;
29550;SDS011;16488;52.396;10.696;2023-09-08T10:30:09;7.18;;;3.97;;
29550;SDS011;16488;52.396;10.696;2023-09-08T10:32:36;5.68;;;4.07;;
29550;SDS011;16488;52.396;10.696;2023-09-08T10:35:03;13.63;;;4.03;;
29550;SDS011;16488;52.396;10.696;2023-09-08T10:37:29;5.60;;;3.33;;
29550;SDS011;16488;52.396;10.696;2023-09-08T10:39:55;10.13;;;3.85;;
29550;SDS011;16488;52.396;10.696;2023-09-08T10:42:41;9.18;;;4.40;;
29550;SDS011;16488;52.396;10.696;2023-09-08T10:45:19;9.00;;;3.88;;
29550;SDS011;16488;52.396;10.696;2023-09-08T10:50:17;5.90;;;3.42;;
29550;SDS011;16488;52.396;10.696;2023-09-08T10:55:41;7.80;;;3.33;;
29550;SDS011;16488;52.396;10.696;2023-09-08T10:58:32;6.03;;;2.95;;
29550;SDS011;16488;52.396;10.696;2023-09-08T11:01:05;4.95;;;3.15;;
29550;SDS011;16488;52.396;10.696;2023-09-08T11:06:02;12.88;;;4.05;;
29550;SDS011;16488;52.396;10.696;2023-09-08T11:08:37;10.48;;;3.35;;
29550;SDS011;16488;52.396;10.696;2023-09-08T11:11:03;10.23;;;3.78;;
29550;SDS011;16488;52.396;10.696;2023-09-08T11:13:29;4.97;;;3.03;;
29550;SDS011;16488;52.396;10.696;2023-09-08T11:15:55;7.10;;;3.10;;
29550;SDS011;16488;52.396;10.696;2023-09-08T11:18:27;9.02;;;3.42;;
29550;SDS011;16488;52.396;10.696;2023-09-08T11:20:53;8.35;;;3.00;;
29550;SDS011;16488;52.396;10.696;2023-09-08T11:23:20;6.93;;;3.75;;
29550;SDS011;16488;52.396;10.696;2023-09-08T11:25:46;9.45;;;3.10;;
29550;SDS011;16488;52.396;10.696;2023-09-08T11:28:12;4.75;;;2.80;;
29550;SDS011;16488;52.396;10.696;2023-09-08T11:30:41;6.07;;;2.90;;
29550;SDS011;16488;52.396;10.696;2023-09-08T11:33:13;4.65;;;3.15;;
29550;SDS011;16488;52.396;10.696;2023-09-08T11:35:40;5.68;;;3.15;;
29550;SDS011;16488;52.396;10.696;2023-09-08T11:38:09;8.90;;;3.33;;
29550;SDS011;16488;52.396;10.696;2023-09-08T11:40:35;12.00;;;2.83;;
29550;SDS011;16488;52.396;10.696;2023-09-08T11:43:02;8.00;;;3.50;;
29550;SDS011;16488;52.396;10.696;2023-09-08T11:45:28;6.60;;;3.08;;
29550;SDS011;16488;52.396;10.696;2023-09-08T11:47:55;6.47;;;3.17;;
29550;SDS011;16488;52.396;10.696;2023-09-08T11:50:22;7.50;;;3.97;;
29550;SDS011;16488;52.396;10.696;2023-09-08T11:52:51;6.03;;;2.90;;
29550;SDS011;16488;52.396;10.696;2023-09-08T11:55:18;8.82;;;3.80;;
29550;SDS011;16488;52.396;10.696;2023-09-08T11:57:46;8.80;;;3.65;;
29550;SDS011;16488;52.396;10.696;2023-09-08T12:00:13;9.93;;;3.35;;
29550;SDS011;16488;52.396;10.696;2023-09-08T12:02:42;6.15;;;3.42;;
29550;SDS011;16488;52.396;10.696;2023-09-08T12:07:37;4.55;;;3.45;;
29550;SDS011;16488;52.396;10.696;2023-09-08T12:10:10;8.07;;;3.40;;
29550;SDS011;16488;52.396;10.696;2023-09-08T12:12:46;8.30;;;3.20;;
29550;SDS011;16488;52.396;10.696;2023-09-08T12:15:31;6.43;;;3.60;;
29550;SDS011;16488;52.396;10.696;2023-09-08T12:17:58;7.32;;;3.38;;
29550;SDS011;16488;52.396;10.696;2023-09-08T12:20:24;7.30;;;3.47;;
29550;SDS011;16488;52.396;10.696;2023-09-08T12:22:50;6.10;;;3.35;;
29550;SDS011;16488;52.396;10.696;2023-09-08T12:25:16;6.10;;;3.20;;
29550;SDS011;16488;52.396;10.696;2023-09-08T12:30:08;6.53;;;3.05;;
29550;SDS011;16488;52.396;10.696;2023-09-08T12:32:34;5.20;;;3.78;;
29550;SDS011;16488;52.396;10.696;2023-09-08T12:35:02;4.35;;;3.03;;
29550;SDS011;16488;52.396;10.696;2023-09-08T12:37:29;6.63;;;3.33;;
29550;SDS011;16488;52.396;10.696;2023-09-08T12:42:21;5.10;;;3.40;;
29550;SDS011;16488;52.396;10.696;2023-09-08T12:44:50;5.68;;;3.13;;
29550;SDS011;16488;52.396;10.696;2023-09-08T12:49:42;5.93;;;2.97;;
29550;SDS011;16488;52.396;10.696;2023-09-08T12:52:08;6.90;;;3.55;;
29550;SDS011;16488;52.396;10.696;2023-09-08T12:54:34;7.63;;;3.80;;
29550;SDS011;16488;52.396;10.696;2023-09-08T12:57:00;4.20;;;3.03;;
29550;SDS011;16488;52.396;10.696;2023-09-08T12:59:26;10.35;;;3.58;;
29550;SDS011;16488;52.396;10.696;2023-09-08T13:01:52;9.18;;;3.80;;
29550;SDS011;16488;52.396;10.696;2023-09-08T13:04:18;8.68;;;2.90;;
29550;SDS011;16488;52.396;10.696;2023-09-08T13:09:10;6.10;;;3.33;;
29550;SDS011;16488;52.396;10.696;2023-09-08T13:11:36;7.03;;;3.67;;
29550;SDS011;16488;52.396;10.696;2023-09-08T13:16:27;5.90;;;3.30;;
29550;SDS011;16488;52.396;10.696;2023-09-08T13:21:20;6.75;;;3.33;;
29550;SDS011;16488;52.396;10.696;2023-09-08T13:26:11;8.02;;;3.63;;
29550;SDS011;16488;52.396;10.696;2023-09-08T13:28:36;5.07;;;3.70;;
29550;SDS011;16488;52.396;10.696;2023-09-08T13:31:02;6.30;;;3.40;;
29550;SDS011;16488;52.396;10.696;2023-09-08T13:33:28;5.35;;;3.38;;
29550;SDS011;16488;52.396;10.696;2023-09-08T13:35:53;7.65;;;3.30;;
29550;SDS011;16488;52.396;10.696;2023-09-08T13:38:19;5.15;;;3.50;;
29550;SDS011;16488;52.396;10.696;2023-09-08T13:40:45;5.15;;;3.35;;
29550;SDS011;16488;52.396;10.696;2023-09-08T13:45:41;7.97;;;3.30;;
29550;SDS011;16488;52.396;10.696;2023-09-08T13:48:07;7.15;;;3.65;;
29550;SDS011;16488;52.396;10.696;2023-09-08T13:52:59;5.20;;;3.40;;
29550;SDS011;16488;52.396;10.696;2023-09-08T13:55:24;4.32;;;3.35;;
29550;SDS011;16488;52.396;10.696;2023-09-08T13:57:50;5.38;;;3.40;;
29550;SDS011;16488;52.396;10.696;2023-09-08T14:00:16;7.00;;;3.30;;
29550;SDS011;16488;52.396;10.696;2023-09-08T14:02:43;6.22;;;3.67;;
29550;SDS011;16488;52.396;10.696;2023-09-08T14:05:08;5.10;;;3.45;;
29550;SDS011;16488;52.396;10.696;2023-09-08T14:10:00;5.10;;;3.53;;
29550;SDS011;16488;52.396;10.696;2023-09-08T14:12:26;6.72;;;3.78;;
29550;SDS011;16488;52.396;10.696;2023-09-08T14:17:17;9.27;;;3.40;;
29550;SDS011;16488;52.396;10.696;2023-09-08T14:19:43;9.25;;;3.35;;
29550;SDS011;16488;52.396;10.696;2023-09-08T14:22:08;8.63;;;4.28;;
29550;SDS011;16488;52.396;10.696;2023-09-08T14:27:00;5.95;;;3.45;;
29550;SDS011;16488;52.396;10.696;2023-09-08T14:31:51;4.82;;;3.08;;
29550;SDS011;16488;52.396;10.696;2023-09-08T14:36:42;5.65;;;3.08;;
29550;SDS011;16488;52.396;10.696;2023-09-08T14:41:33;6.85;;;3.17;;
29550;SDS011;16488;52.396;10.696;2023-09-08T14:43:59;9.10;;;3.67;;
29550;SDS011;16488;52.396;10.696;2023-09-08T14:48:53;5.85;;;3.22;;
29550;SDS011;16488;52.396;10.696;2023-09-08T14:51:20;4.88;;;3.08;;
29550;SDS011;16488;52.396;10.696;2023-09-08T14:56:11;9.60;;;3.50;;
29550;SDS011;16488;52.396;10.696;2023-09-08T15:01:03;10.60;;;3.55;;
29550;SDS011;16488;52.396;10.696;2023-09-08T15:03:32;4.18;;;3.17;;
29550;SDS011;16488;52.396;10.696;2023-09-08T15:06:01;11.73;;;3.33;;
29550;SDS011;16488;52.396;10.696;2023-09-08T15:10:53;6.22;;;3.83;;
29550;SDS011;16488;52.396;10.696;2023-09-08T15:15:44;5.97;;;3.00;;
29550;SDS011;16488;52.396;10.696;2023-09-08T15:18:09;7.50;;;3.42;;
29550;SDS011;16488;52.396;10.696;2023-09-08T15:20:35;8.82;;;3.85;;
29550;SDS011;16488;52.396;10.696;2023-09-08T15:23:01;7.65;;;4.00;;
29550;SDS011;16488;52.396;10.696;2023-09-08T15:25:27;6.75;;;3.70;;
29550;SDS011;16488;52.396;10.696;2023-09-08T15:30:19;9.10;;;3.95;;
29550;SDS011;16488;52.396;10.696;2023-09-08T15:32:44;9.77;;;4.07;;
29550;SDS011;16488;52.396;10.696;2023-09-08T15:35:10;5.22;;;3.50;;
29550;SDS011;16488;52.396;10.696;2023-09-08T15:37:36;10.00;;;3.72;;
29550;SDS011;16488;52.396;10.696;2023-09-08T15:40:02;7.22;;;4.15;;
29550;SDS011;16488;52.396;10.696;2023-09-08T15:42:30;7.32;;;3.30;;
29550;SDS011;16488;52.396;10.696;2023-09-08T15:47:21;6.97;;;4.18;;
29550;SDS011;16488;52.396;10.696;2023-09-08T15:50:15;4.97;;;3.42;;